createdAt,value
2023-11-15T00:04:23.424Z,10.62
2023-11-15T00:09:27.350Z,10.45
2023-11-15T00:14:29.350Z,10.49
2023-11-15T00:19:32.410Z,10.37
2023-11-15T00:24:34.770Z,10.32
2023-11-15T00:29:36.910Z,10.31
2023-11-15T00:34:41.295Z,10.20
2023-11-15T00:39:43.457Z,10.13
2023-11-15T00:44:45.526Z,10.05
2023-11-15T00:49:47.561Z,10.06
2023-11-15T00:54:50.594Z,9.91
2023-11-15T00:59:55.032Z,9.78
2023-11-15T01:04:58.893Z,9.67
2023-11-15T01:10:01.078Z,9.61
2023-11-15T01:15:07.703Z,9.46
2023-11-15T01:20:10.109Z,9.51
2023-11-15T01:25:14.094Z,9.44
2023-11-15T01:30:15.994Z,9.50
2023-11-15T01:35:19.686Z,9.55
2023-11-15T01:40:22.605Z,9.58
2023-11-15T01:45:24.642Z,9.66
2023-11-15T01:50:26.910Z,9.65
2023-11-15T01:55:30.083Z,9.67
2023-11-15T02:00:35.481Z,9.76
2023-11-15T02:05:37.595Z,9.78
2023-11-15T02:10:39.925Z,9.80
2023-11-15T02:15:41.890Z,9.68
2023-11-15T02:20:44.966Z,9.59
2023-11-15T02:25:47.346Z,9.57
2023-11-15T02:30:50.040Z,9.54
2023-11-15T02:35:52.050Z,9.58
2023-11-15T02:40:54.458Z,9.52
2023-11-15T02:45:57.400Z,9.43
2023-11-15T02:50:59.414Z,9.39
2023-11-15T02:56:01.601Z,9.21
2023-11-15T03:01:09.753Z,9.30
2023-11-15T03:06:15.543Z,9.38
2023-11-15T03:11:17.447Z,9.41
2023-11-15T03:16:20.923Z,9.41
2023-11-15T03:21:24.884Z,9.49
2023-11-15T03:26:26.859Z,9.56
2023-11-15T03:31:28.942Z,9.59
2023-11-15T03:36:34.078Z,9.57
2023-11-15T03:41:36.452Z,9.55
2023-11-15T03:46:38.548Z,9.58
2023-11-15T03:51:40.662Z,9.63
2023-11-15T03:56:44.161Z,9.64
2023-11-15T04:01:55.140Z,9.61
2023-11-15T04:06:59.660Z,9.57
2023-11-15T04:12:02.835Z,9.63
2023-11-15T04:17:05.693Z,9.60
2023-11-15T04:22:13.564Z,9.56
2023-11-15T04:27:16.559Z,9.50
2023-11-15T04:32:18.621Z,9.52
2023-11-15T04:37:20.960Z,9.53
2023-11-15T04:42:28.168Z,9.59
2023-11-15T04:47:31.848Z,9.62
2023-11-15T04:52:34.989Z,9.58
2023-11-15T04:57:37.324Z,9.50
2023-11-15T05:02:39.466Z,9.52
2023-11-15T05:07:41.629Z,9.52
2023-11-15T05:12:43.649Z,9.50
2023-11-15T05:17:45.639Z,9.53
2023-11-15T05:22:48.624Z,9.52
2023-11-15T05:27:54.892Z,9.59
2023-11-15T05:32:56.909Z,9.52
2023-11-15T05:37:59.662Z,9.55
2023-11-15T05:43:01.660Z,9.54
2023-11-15T05:48:03.976Z,9.52
2023-11-15T05:53:07.168Z,9.51
2023-11-15T05:58:13.162Z,9.51
2023-11-15T06:03:15.348Z,9.49
2023-11-15T06:08:19.020Z,9.47
2023-11-15T06:13:22.246Z,9.36
2023-11-15T06:18:24.467Z,9.35
2023-11-15T06:23:26.578Z,9.31
2023-11-15T06:28:28.833Z,9.36
2023-11-15T06:33:32.612Z,9.40
2023-11-15T06:38:36.240Z,9.41
2023-11-15T06:43:43.289Z,9.37
2023-11-15T06:48:45.857Z,9.38
2023-11-15T06:53:52.797Z,9.35
2023-11-15T06:58:58.636Z,9.33
2023-11-15T07:04:09.128Z,9.42
2023-11-15T07:09:14.231Z,9.38
2023-11-15T07:14:18.325Z,9.42
2023-11-15T07:19:20.329Z,9.49
2023-11-15T07:24:22.782Z,9.40
2023-11-15T07:29:27.732Z,9.50
2023-11-15T07:34:30.734Z,9.53
2023-11-15T07:39:34.988Z,9.56
2023-11-15T07:44:44.890Z,9.52
2023-11-15T07:49:47.486Z,9.50
2023-11-15T07:54:49.709Z,9.26
2023-11-15T07:59:53.331Z,9.25
2023-11-15T08:04:55.900Z,9.18
2023-11-15T08:09:57.985Z,9.19
2023-11-15T08:15:01.424Z,9.10
2023-11-15T08:20:05.869Z,9.09
2023-11-15T08:25:11.038Z,9.08
2023-11-15T08:30:19.153Z,9.10
2023-11-15T08:35:22.143Z,9.11
2023-11-15T08:40:29.042Z,9.13
2023-11-15T08:45:32.892Z,9.11
2023-11-15T08:50:35.903Z,9.17
2023-11-15T08:55:42.227Z,9.21
2023-11-15T09:00:51.350Z,9.24
2023-11-15T09:05:53.608Z,9.24
2023-11-15T09:10:56.868Z,9.26
2023-11-15T09:16:00.562Z,9.28
2023-11-15T09:26:07.804Z,9.54
2023-11-15T09:31:13.765Z,9.60
2023-11-15T09:36:16.235Z,9.53
2023-11-15T09:41:21.060Z,9.54
2023-11-15T09:46:23.761Z,9.53
2023-11-15T09:51:31.395Z,9.53
2023-11-15T09:56:36.946Z,9.54
2023-11-15T10:01:47.041Z,9.61
2023-11-15T10:06:52.643Z,9.66
2023-11-15T10:11:55.249Z,9.67
2023-11-15T10:17:02.221Z,9.70
2023-11-15T10:22:06.523Z,9.75
2023-11-15T10:27:16.449Z,9.81
2023-11-15T10:32:23.631Z,9.88
2023-11-15T10:37:25.694Z,9.81
2023-11-15T10:42:30.005Z,9.71
2023-11-15T10:47:35.961Z,9.70
2023-11-15T10:52:40.491Z,9.71
2023-11-15T10:57:47.639Z,9.71
2023-11-15T11:02:52.766Z,9.73
2023-11-15T11:08:36.357Z,9.75
2023-11-15T11:13:42.455Z,9.90
2023-11-15T11:19:18.437Z,9.90
2023-11-15T11:24:24.082Z,9.83
2023-11-15T11:29:32.310Z,9.80
2023-11-15T11:34:34.517Z,9.83
2023-11-15T11:39:48.306Z,9.83
2023-11-15T11:44:58.683Z,9.88
2023-11-15T11:50:06.168Z,9.96
2023-11-15T11:55:09.658Z,10.14
2023-11-15T12:00:19.610Z,10.16
2023-11-15T12:05:26.010Z,10.26
2023-11-15T12:10:28.085Z,10.22
2023-11-15T12:15:30.520Z,10.17
2023-11-15T12:20:42.908Z,9.96
2023-11-15T12:25:56.025Z,9.86
2023-11-15T12:31:04.048Z,9.72
2023-11-15T12:36:12.902Z,9.55
2023-11-15T12:41:16.022Z,9.42
2023-11-15T12:46:21.725Z,9.42
2023-11-15T12:51:27.853Z,9.32
2023-11-15T12:56:30.004Z,9.24
2023-11-15T13:01:32.125Z,9.12
2023-11-15T13:06:37.480Z,8.96
2023-11-15T13:11:41.569Z,8.83
2023-11-15T13:16:43.916Z,8.68
2023-11-15T13:21:48.747Z,8.44
2023-11-15T13:26:53.465Z,8.23
2023-11-15T13:32:00.826Z,8.19
2023-11-15T13:37:03.000Z,8.09
2023-11-15T13:42:09.732Z,8.07
2023-11-15T13:47:14.156Z,8.02
2023-11-15T13:52:17.513Z,7.99
2023-11-15T13:57:20.448Z,7.75
2023-11-15T14:02:25.063Z,7.44
2023-11-15T14:07:29.066Z,7.27
2023-11-15T14:12:41.130Z,7.16
2023-11-15T14:17:44.005Z,7.08
2023-11-15T14:22:49.136Z,6.95
2023-11-15T14:27:56.289Z,6.90
2023-11-15T14:33:09.881Z,6.80
2023-11-15T14:38:15.981Z,6.81
2023-11-15T14:43:20.953Z,6.69
2023-11-15T14:48:23.414Z,6.70
2023-11-15T14:53:26.757Z,6.67
2023-11-15T14:58:28.994Z,6.62
2023-11-15T15:03:35.475Z,6.55
2023-11-15T15:08:42.197Z,6.55
2023-11-15T15:13:44.901Z,6.51
2023-11-15T15:18:47.539Z,6.49
2023-11-15T15:23:50.859Z,6.39
2023-11-15T15:28:55.251Z,6.34
2023-11-15T15:34:00.645Z,6.33
2023-11-15T15:39:04.222Z,6.21
2023-11-15T15:44:13.172Z,6.20
2023-11-15T15:49:15.789Z,6.09
2023-11-15T15:54:22.997Z,6.09
2023-11-15T15:59:25.614Z,6.00
2023-11-15T16:04:28.284Z,5.95
2023-11-15T16:09:33.451Z,5.96
2023-11-15T16:14:36.919Z,5.91
2023-11-15T16:19:47.074Z,5.85
2023-11-15T16:24:58.852Z,5.81
2023-11-15T16:30:02.450Z,5.81
2023-11-15T16:35:09.623Z,5.79
2023-11-15T16:40:20.619Z,5.81
2023-11-15T16:45:27.964Z,5.79
2023-11-15T16:50:30.301Z,5.75
2023-11-15T16:55:33.520Z,5.78
2023-11-15T17:00:36.645Z,5.75
2023-11-15T17:05:41.012Z,5.75
2023-11-15T17:10:49.070Z,5.69
2023-11-15T17:15:52.812Z,5.61
2023-11-15T17:20:59.751Z,5.57
2023-11-15T17:26:05.189Z,5.47
2023-11-15T17:31:14.606Z,5.43
2023-11-15T17:36:16.794Z,5.36
2023-11-15T17:41:21.245Z,5.30
2023-11-15T17:46:26.011Z,5.21
2023-11-15T17:51:35.281Z,5.17
2023-11-15T17:56:39.879Z,5.07
2023-11-15T18:01:44.465Z,5.05
2023-11-15T18:06:47.944Z,5.01
2023-11-15T18:11:59.201Z,4.98
2023-11-15T18:17:04.937Z,4.99
2023-11-15T18:22:08.443Z,4.99
2023-11-15T18:27:12.028Z,4.95
2023-11-15T18:32:15.121Z,4.94
2023-11-15T18:37:19.934Z,4.90
2023-11-15T18:42:22.894Z,4.88
2023-11-15T18:47:33.003Z,4.87
2023-11-15T18:52:40.581Z,4.89
2023-11-15T18:57:46.188Z,4.89
2023-11-15T19:02:50.305Z,4.92
2023-11-15T19:07:53.733Z,4.90
2023-11-15T19:12:57.478Z,4.94
2023-11-15T19:18:02.110Z,4.95
2023-11-15T19:23:08.827Z,4.77
2023-11-15T19:28:12.402Z,4.62
2023-11-15T19:33:15.873Z,4.54
2023-11-15T19:38:19.544Z,4.51
2023-11-15T19:43:23.733Z,4.48
2023-11-15T19:44:16.615Z,4.48
2023-11-15T19:44:31.092Z,4.45
2023-11-15T19:44:40.886Z,4.46
2023-11-15T19:44:49.549Z,4.45
2023-11-15T19:44:58.331Z,4.45
2023-11-15T19:45:09.032Z,4.46
2023-11-15T19:45:17.515Z,4.45
2023-11-15T19:45:40.837Z,4.44
2023-11-15T19:45:54.821Z,4.44
2023-11-15T19:46:02.855Z,4.44
2023-11-15T19:46:18.719Z,4.47
2023-11-15T19:46:27.331Z,4.47
2023-11-15T19:46:35.916Z,4.45
2023-11-15T19:46:44.498Z,4.49
2023-11-15T19:47:03.178Z,4.48
2023-11-15T19:47:11.610Z,4.45
2023-11-15T19:47:22.638Z,4.45
2023-11-15T19:47:31.156Z,4.46
2023-11-15T19:47:42.470Z,4.46
2023-11-15T19:47:50.609Z,4.46
2023-11-15T19:48:09.015Z,4.46
2023-11-15T19:48:19.596Z,4.46
2023-11-15T19:48:28.062Z,4.44
2023-11-15T19:48:37.931Z,4.43
2023-11-15T19:48:49.891Z,4.43
2023-11-15T19:48:58.339Z,4.44
2023-11-15T19:49:17.210Z,4.44
2023-11-15T19:49:25.669Z,4.45
2023-11-15T19:49:34.413Z,4.42
2023-11-15T19:49:42.620Z,4.43
2023-11-15T19:49:50.839Z,4.44
2023-11-15T19:50:00.344Z,4.43
2023-11-15T19:50:18.437Z,4.42
2023-11-15T19:50:26.849Z,4.43
2023-11-15T19:50:35.267Z,4.41
2023-11-15T19:50:45.505Z,4.41
2023-11-15T19:50:56.584Z,4.40
2023-11-15T19:51:06.545Z,4.39
2023-11-15T19:51:37.532Z,4.38
2023-11-15T19:51:55.778Z,4.38
2023-11-15T19:52:13.881Z,4.35
2023-11-15T19:52:24.153Z,4.35
2023-11-15T19:52:32.498Z,4.35
2023-11-15T19:52:45.129Z,4.32
2023-11-15T19:52:55.558Z,4.34
2023-11-15T19:53:09.018Z,4.33
2023-11-15T19:53:18.841Z,4.30
2023-11-15T19:53:27.587Z,4.30
2023-11-15T19:53:36.148Z,4.29
2023-11-15T19:53:45.552Z,4.28
2023-11-15T19:53:57.778Z,4.30
2023-11-15T19:54:09.688Z,4.27
2023-11-15T19:54:22.957Z,4.28
2023-11-15T19:54:31.238Z,4.27
2023-11-15T19:54:42.374Z,4.27
2023-11-15T19:54:50.857Z,4.27
2023-11-15T19:54:59.163Z,4.22
2023-11-15T19:55:19.988Z,4.24
2023-11-15T19:55:32.059Z,4.24
2023-11-15T19:55:40.803Z,4.25
2023-11-15T19:55:48.712Z,4.24
2023-11-15T19:55:57.222Z,4.22
2023-11-15T19:56:07.577Z,4.21
2023-11-15T19:56:26.249Z,4.19
2023-11-15T19:56:35.651Z,4.20
2023-11-15T19:56:43.836Z,4.18
2023-11-15T19:56:54.514Z,4.21
2023-11-15T19:57:03.044Z,4.16
2023-11-15T19:57:11.205Z,4.16
2023-11-15T19:57:29.883Z,4.16
2023-11-15T19:57:41.967Z,4.17
2023-11-15T19:57:50.038Z,4.15
2023-11-15T19:57:59.613Z,4.14
2023-11-15T19:58:08.603Z,4.12
2023-11-15T19:58:17.470Z,4.06
2023-11-15T19:58:39.369Z,4.10
2023-11-15T19:58:49.737Z,4.08
2023-11-15T19:58:58.241Z,4.07
2023-11-15T19:59:06.249Z,4.10
2023-11-15T19:59:16.515Z,4.08
2023-11-15T19:59:25.122Z,4.03
2023-11-15T19:59:50.060Z,4.06
2023-11-15T19:59:59.116Z,4.05
2023-11-15T20:00:14.384Z,4.04
2023-11-15T20:00:22.531Z,4.01
2023-11-15T20:00:30.657Z,4.01
2023-11-15T20:00:39.800Z,4.03
2023-11-15T20:01:11.081Z,4.00
2023-11-15T20:01:22.863Z,3.98
2023-11-15T20:06:34.837Z,3.85
2023-11-15T20:11:41.450Z,3.72
2023-11-15T20:16:44.887Z,3.54
2023-11-15T20:21:50.594Z,3.48
2023-11-15T20:26:57.809Z,3.33
2023-11-15T20:32:01.041Z,3.32
2023-11-15T20:37:04.337Z,3.16
2023-11-15T20:42:10.985Z,3.08
2023-11-15T20:47:15.384Z,3.13
2023-11-15T20:52:20.302Z,3.08
2023-11-15T20:57:24.267Z,3.05
2023-11-15T21:02:26.420Z,3.28
2023-11-15T21:07:43.826Z,3.32
2023-11-15T21:12:50.025Z,3.41
2023-11-15T21:18:12.556Z,3.52
2023-11-15T21:23:14.434Z,3.53
2023-11-15T21:28:18.688Z,3.58
2023-11-15T21:33:22.998Z,3.53
2023-11-15T21:38:32.366Z,3.68
2023-11-15T21:43:35.561Z,3.69
2023-11-15T21:48:38.690Z,3.57
2023-11-15T21:53:57.371Z,3.36
2023-11-15T21:59:01.577Z,3.23
2023-11-15T22:04:09.814Z,3.20
2023-11-15T22:09:18.143Z,3.09
2023-11-15T22:14:22.672Z,2.98
2023-11-15T22:19:24.837Z,2.94
2023-11-15T22:24:33.090Z,3.11
2023-11-15T22:29:53.376Z,3.26
2023-11-15T22:34:58.252Z,3.39
2023-11-15T22:40:01.311Z,3.51
2023-11-15T22:45:07.339Z,3.71
2023-11-15T22:50:18.896Z,3.75
2023-11-15T22:55:21.518Z,3.76
2023-11-15T23:00:37.914Z,3.77
2023-11-15T23:05:44.368Z,3.82
2023-11-15T23:10:47.395Z,3.88
2023-11-15T23:15:52.367Z,3.83
2023-11-15T23:21:02.776Z,3.76
2023-11-15T23:26:05.975Z,3.76
2023-11-15T23:31:08.028Z,3.68
2023-11-15T23:36:10.244Z,3.51
2023-11-15T23:41:22.097Z,3.42
2023-11-15T23:46:25.220Z,3.30
2023-11-15T23:51:27.249Z,3.22
2023-11-15T23:56:29.158Z,3.20
